Time;durP1;ratioP1;P1;durP2;ratioP2;P2;SDS_P1;SDS_P2;PMS_P1;PMS_P2;Temp;Humidity;BMP_temperature;BMP_pressure;BME280_temperature;BME280_humidity;BME280_pressure;Samples;Min_cycle;Max_cycle;Signal;HPM_P1;HPM_P2
2022/09/17 00:01:36;;;;;;;11.07;3.57;;;12.20;99.90;;;;;;5103674;28;20475;-82
2022/09/17 00:04:06;;;;;;;11.97;3.67;;;12.20;99.90;;;;;;5104768;28;20448;-81
2022/09/17 00:06:36;;;;;;;11.30;3.80;;;12.20;99.90;;;;;;5108779;28;20448;-81
2022/09/17 00:09:06;;;;;;;13.10;3.40;;;12.20;99.90;;;;;;5118003;28;20401;-83
2022/09/17 00:11:38;;;;;;;11.43;3.57;;;12.20;99.90;;;;;;5118285;28;20451;-83
2022/09/17 00:14:12;;;;;;;12.97;3.67;;;12.20;99.90;;;;;;5115370;28;20440;-82
2022/09/17 00:16:41;;;;;;;13.70;3.70;;;12.20;99.90;;;;;;5112077;28;20783;-82
2022/09/17 00:19:14;;;;;;;13.07;4.10;;;12.10;99.90;;;;;;5109197;28;20440;-83
2022/09/17 00:21:43;;;;;;;11.40;3.27;;;12.20;99.90;;;;;;5108713;28;20522;-83
2022/09/17 00:24:13;;;;;;;11.30;2.93;;;12.20;99.90;;;;;;5108858;28;20436;-83
2022/09/17 00:26:42;;;;;;;15.40;3.93;;;12.10;99.90;;;;;;5108152;28;20523;-83
2022/09/17 00:29:11;;;;;;;14.70;3.67;;;12.10;99.90;;;;;;5107765;28;20513;-82
2022/09/17 00:31:40;;;;;;;14.80;3.80;;;12.10;99.90;;;;;;5108234;28;20477;-81
2022/09/17 00:34:09;;;;;;;13.47;3.57;;;12.10;99.90;;;;;;5107063;28;20472;-82
2022/09/17 00:36:38;;;;;;;14.63;3.43;;;12.10;99.90;;;;;;5106762;28;20479;-83
2022/09/17 00:39:08;;;;;;;13.20;3.90;;;12.10;99.90;;;;;;5107456;28;20450;-83
2022/09/17 00:41:38;;;;;;;10.53;3.37;;;12.10;99.90;;;;;;5107568;28;20468;-83
2022/09/17 00:44:47;;;;;;;16.27;4.07;;;12.10;99.90;;;;;;5107736;28;20499;-82
2022/09/17 00:47:20;;;;;;;15.00;3.97;;;12.10;99.90;;;;;;5105547;28;20475;-83
2022/09/17 00:49:51;;;;;;;15.70;3.90;;;12.10;99.90;;;;;;5105492;28;20444;-82
2022/09/17 00:52:23;;;;;;;13.60;3.23;;;12.00;99.90;;;;;;5104993;28;20472;-82
2022/09/17 00:54:56;;;;;;;15.00;3.70;;;12.00;99.90;;;;;;5107787;28;20468;-84
2022/09/17 00:57:24;;;;;;;13.13;4.07;;;12.00;99.90;;;;;;5107826;28;20865;-83
2022/09/17 00:59:54;;;;;;;9.20;3.50;;;12.00;99.90;;;;;;5108600;28;20448;-83
2022/09/17 01:02:25;;;;;;;15.43;3.57;;;12.00;99.90;;;;;;5105337;28;20536;-83
2022/09/17 01:04:55;;;;;;;17.57;4.20;;;12.00;99.90;;;;;;5106537;28;20512;-83
2022/09/17 01:07:43;;;;;;;13.00;3.50;;;12.00;99.90;;;;;;5106629;28;20543;-82
2022/09/17 01:10:23;;;;;;;14.53;4.00;;;12.00;99.90;;;;;;5109212;28;20521;-81
2022/09/17 01:13:06;;;;;;;18.00;3.37;;;12.00;99.90;;;;;;5107831;28;20495;-83
2022/09/17 01:15:47;;;;;;;11.20;4.00;;;12.00;99.90;;;;;;5108027;28;20436;-82
2022/09/17 01:18:27;;;;;;;11.03;3.10;;;12.00;99.90;;;;;;5107451;28;20440;-83
2022/09/17 01:21:32;;;;;;;12.07;3.33;;;12.00;99.90;;;;;;5108701;28;20420;-83
2022/09/17 01:24:25;;;;;;;12.97;3.93;;;12.00;99.90;;;;;;5066839;28;20885;-82
2022/09/17 01:27:24;;;;;;;10.37;3.00;;;11.90;99.90;;;;;;5109543;28;20465;-82
2022/09/17 01:30:25;;;;;;;12.93;3.77;;;11.90;99.90;;;;;;5107207;28;20458;-83
2022/09/17 01:33:00;;;;;;;14.03;4.27;;;11.90;99.90;;;;;;5076031;28;20538;-82
2022/09/17 01:35:37;;;;;;;14.13;3.93;;;11.90;99.90;;;;;;5105615;28;20856;-82
2022/09/17 01:38:10;;;;;;;13.03;3.93;;;11.90;99.90;;;;;;5104951;28;20443;-83
2022/09/17 01:40:46;;;;;;;11.33;3.47;;;11.80;99.90;;;;;;5106857;28;20454;-83
2022/09/17 01:43:21;;;;;;;13.30;3.63;;;11.80;99.90;;;;;;5106204;28;20453;-83
2022/09/17 01:45:51;;;;;;;16.93;4.00;;;11.80;99.90;;;;;;5106841;28;20448;-83
2022/09/17 01:48:26;;;;;;;10.97;3.30;;;11.80;99.90;;;;;;5107873;28;20464;-82
2022/09/17 01:50:58;;;;;;;11.83;4.20;;;11.80;99.90;;;;;;5106637;28;20466;-83
2022/09/17 01:53:37;;;;;;;14.17;4.20;;;11.80;99.90;;;;;;5106516;28;20472;-82
2022/09/17 01:56:09;;;;;;;11.90;4.73;;;11.80;99.90;;;;;;5106633;28;20436;-82
2022/09/17 01:58:41;;;;;;;18.77;4.43;;;11.80;99.90;;;;;;5107363;28;20440;-83
2022/09/17 02:01:12;;;;;;;16.27;3.90;;;11.80;99.90;;;;;;5106259;28;20476;-82
2022/09/17 02:03:48;;;;;;;12.67;4.30;;;11.80;99.90;;;;;;5113684;28;20447;-83
2022/09/17 02:06:20;;;;;;;14.93;3.60;;;11.80;99.90;;;;;;5108922;28;20440;-82
2022/09/17 02:08:53;;;;;;;16.83;4.23;;;11.80;99.90;;;;;;5109798;28;20460;-82
2022/09/17 02:11:22;;;;;;;14.63;3.93;;;11.70;99.90;;;;;;5108792;28;20483;-82
2022/09/17 02:13:57;;;;;;;17.47;4.33;;;11.70;99.90;;;;;;5107098;28;20452;-84
2022/09/17 02:16:27;;;;;;;11.40;4.10;;;11.70;99.90;;;;;;5106739;28;20439;-83
2022/09/17 02:19:05;;;;;;;13.70;3.93;;;11.70;99.90;;;;;;5106998;28;20441;-82
2022/09/17 02:21:39;;;;;;;17.90;3.87;;;11.70;99.90;;;;;;5107091;28;20463;-83
2022/09/17 02:24:17;;;;;;;10.57;3.47;;;11.70;99.90;;;;;;5105731;28;20452;-82
2022/09/17 02:26:50;;;;;;;14.23;4.20;;;11.70;99.90;;;;;;5105885;28;20503;-84
2022/09/17 02:29:26;;;;;;;9.50;3.67;;;11.70;99.90;;;;;;5106793;28;20566;-82
2022/09/17 02:31:54;;;;;;;10.87;3.47;;;11.70;99.90;;;;;;5105758;28;20468;-83
2022/09/17 02:34:26;;;;;;;13.63;3.50;;;11.70;99.90;;;;;;5105128;28;20452;-82
2022/09/17 02:36:55;;;;;;;11.20;3.10;;;11.70;99.90;;;;;;5107218;28;20416;-81
2022/09/17 02:39:23;;;;;;;12.23;3.97;;;11.70;99.90;;;;;;5106161;28;20444;-83
2022/09/17 02:42:03;;;;;;;11.13;3.33;;;11.70;99.90;;;;;;5107879;28;20456;-82
2022/09/17 02:44:38;;;;;;;10.70;4.20;;;11.70;99.90;;;;;;5108662;28;20424;-82
2022/09/17 02:47:29;;;;;;;10.00;3.20;;;11.70;99.90;;;;;;5106765;28;20439;-82
2022/09/17 02:50:26;;;;;;;15.13;4.03;;;11.70;99.90;;;;;;5107306;28;20433;-81
2022/09/17 02:53:06;;;;;;;10.47;3.80;;;11.70;99.90;;;;;;5106620;28;20479;-82
2022/09/17 02:55:41;;;;;;;14.37;3.73;;;11.70;99.90;;;;;;5105314;28;20447;-83
2022/09/17 02:58:20;;;;;;;11.77;3.20;;;11.70;99.90;;;;;;5106412;28;20960;-83
2022/09/17 03:00:48;;;;;;;13.37;3.83;;;11.70;99.90;;;;;;5106019;28;20507;-84
2022/09/17 03:03:21;;;;;;;11.67;4.03;;;11.70;99.90;;;;;;5105071;28;20444;-83
2022/09/17 03:05:52;;;;;;;10.83;4.03;;;11.70;99.90;;;;;;5106587;28;20431;-83
2022/09/17 03:08:27;;;;;;;10.50;3.43;;;11.70;99.90;;;;;;5100390;28;20456;-85
2022/09/17 03:10:56;;;;;;;12.40;3.57;;;11.70;99.90;;;;;;5096524;28;20925;-85
2022/09/17 03:13:24;;;;;;;10.00;3.77;;;11.70;99.90;;;;;;5098113;28;20463;-83
2022/09/17 03:15:52;;;;;;;15.90;4.20;;;11.70;99.90;;;;;;5099274;28;20451;-82
2022/09/17 03:18:21;;;;;;;12.77;4.00;;;11.60;99.90;;;;;;5099718;28;20543;-82
2022/09/17 03:20:50;;;;;;;11.47;3.57;;;11.60;99.90;;;;;;5098092;28;20455;-82
2022/09/17 03:23:21;;;;;;;13.30;3.90;;;11.60;99.90;;;;;;5100319;28;20480;-83
2022/09/17 03:25:50;;;;;;;14.73;3.97;;;11.60;99.90;;;;;;5100452;28;20425;-82
2022/09/17 03:28:18;;;;;;;14.00;4.07;;;11.50;99.90;;;;;;5102184;28;20491;-81
2022/09/17 03:30:47;;;;;;;20.03;4.70;;;11.50;99.90;;;;;;5099756;28;20452;-84
2022/09/17 03:33:15;;;;;;;16.03;4.03;;;11.50;99.90;;;;;;5101296;28;20452;-82
2022/09/17 03:35:43;;;;;;;13.20;3.87;;;11.50;99.90;;;;;;5102767;28;20448;-81
2022/09/17 03:38:13;;;;;;;12.33;4.13;;;11.50;99.90;;;;;;5100345;28;20444;-82
2022/09/17 03:40:42;;;;;;;14.40;3.70;;;11.50;99.90;;;;;;5102247;28;20483;-82
2022/09/17 03:43:13;;;;;;;15.63;4.90;;;11.50;99.90;;;;;;5101745;28;20844;-84
2022/09/17 03:45:43;;;;;;;14.60;3.80;;;11.50;99.90;;;;;;5097585;28;20451;-83
2022/09/17 03:48:11;;;;;;;12.57;3.40;;;11.40;99.90;;;;;;5100203;28;21000;-84
2022/09/17 03:50:39;;;;;;;11.00;4.10;;;11.40;99.90;;;;;;5103175;28;20449;-83
2022/09/17 03:53:08;;;;;;;13.97;4.03;;;11.40;99.90;;;;;;5106867;28;20459;-82
2022/09/17 03:55:39;;;;;;;15.37;3.37;;;11.40;99.90;;;;;;5105072;28;20799;-83
2022/09/17 03:58:10;;;;;;;15.37;3.80;;;11.40;99.90;;;;;;5104423;28;20544;-82
2022/09/17 04:00:38;;;;;;;8.60;3.30;;;11.40;99.90;;;;;;5102984;28;20433;-82
2022/09/17 04:03:07;;;;;;;13.90;3.50;;;11.30;99.90;;;;;;5103269;28;20460;-82
2022/09/17 04:05:35;;;;;;;20.03;4.63;;;11.30;99.90;;;;;;5098910;28;20497;-82
2022/09/17 04:08:03;;;;;;;15.90;4.07;;;11.30;99.90;;;;;;5098924;28;20452;-83
2022/09/17 04:10:32;;;;;;;13.10;4.17;;;11.30;99.90;;;;;;5098926;28;20448;-82
2022/09/17 04:13:01;;;;;;;12.50;4.57;;;11.30;99.90;;;;;;5097904;28;20478;-82
2022/09/17 04:15:29;;;;;;;11.70;3.40;;;11.30;99.90;;;;;;5099003;28;20519;-82
2022/09/17 04:17:58;;;;;;;12.00;3.50;;;11.30;99.90;;;;;;5099606;28;20448;-81
2022/09/17 04:20:27;;;;;;;14.40;3.57;;;11.30;99.90;;;;;;5099230;28;20436;-81
2022/09/17 04:22:55;;;;;;;12.77;4.33;;;11.30;99.90;;;;;;5099212;28;20551;-81
2022/09/17 04:25:24;;;;;;;15.97;4.30;;;11.30;99.90;;;;;;5100095;28;20436;-82
2022/09/17 04:27:52;;;;;;;11.90;3.40;;;11.30;99.90;;;;;;5100964;28;20475;-82
2022/09/17 04:30:22;;;;;;;13.03;4.00;;;11.30;99.90;;;;;;5103404;28;20464;-81
2022/09/17 04:32:50;;;;;;;11.20;3.73;;;11.30;99.90;;;;;;5104218;28;21109;-82
2022/09/17 04:35:18;;;;;;;10.53;3.70;;;11.20;99.90;;;;;;5105263;28;20440;-83
2022/09/17 04:37:53;;;;;;;14.70;4.00;;;11.20;99.90;;;;;;5105700;28;20447;-81
2022/09/17 04:40:21;;;;;;;14.37;3.50;;;11.20;99.90;;;;;;5105859;28;20442;-81
2022/09/17 04:42:53;;;;;;;14.90;3.80;;;11.20;99.90;;;;;;5105179;28;20464;-81
2022/09/17 04:45:23;;;;;;;15.77;4.20;;;11.20;99.90;;;;;;5104775;28;20535;-81
2022/09/17 04:47:52;;;;;;;13.87;4.07;;;11.20;99.90;;;;;;5105019;28;20459;-81
2022/09/17 04:50:20;;;;;;;10.60;3.37;;;11.10;99.90;;;;;;5104215;28;20577;-82
2022/09/17 04:52:49;;;;;;;14.30;4.20;;;11.10;99.90;;;;;;5105353;28;20551;-82
2022/09/17 04:55:17;;;;;;;13.47;4.00;;;11.10;99.90;;;;;;5104893;28;20448;-81
2022/09/17 04:57:50;;;;;;;13.13;3.90;;;11.10;99.90;;;;;;5104823;28;20479;-81
2022/09/17 05:00:19;;;;;;;14.80;3.87;;;11.00;99.90;;;;;;5106539;28;20528;-83
2022/09/17 05:02:53;;;;;;;12.43;3.63;;;11.00;99.90;;;;;;5105915;28;20564;-83
2022/09/17 05:05:21;;;;;;;16.07;3.97;;;11.00;99.90;;;;;;5107400;28;20425;-83
2022/09/17 05:07:50;;;;;;;13.37;3.57;;;11.00;99.90;;;;;;5106128;28;20444;-83
2022/09/17 05:10:20;;;;;;;9.13;3.53;;;11.00;99.90;;;;;;5107493;28;20471;-84
2022/09/17 05:12:49;;;;;;;15.37;4.13;;;10.90;99.90;;;;;;5106858;28;20460;-83
2022/09/17 05:15:18;;;;;;;11.40;3.20;;;10.90;99.90;;;;;;5107508;28;20449;-83
2022/09/17 05:17:46;;;;;;;15.50;3.87;;;10.90;99.90;;;;;;5104965;28;20446;-83
2022/09/17 05:20:16;;;;;;;10.90;3.33;;;10.90;99.90;;;;;;5107108;28;20447;-82
2022/09/17 05:22:46;;;;;;;8.13;3.50;;;10.90;99.90;;;;;;5108880;28;20918;-83
2022/09/17 05:25:16;;;;;;;10.83;3.53;;;10.90;99.90;;;;;;5108180;28;20486;-83
2022/09/17 05:27:44;;;;;;;10.33;3.30;;;10.90;99.90;;;;;;5107871;28;20443;-83
2022/09/17 05:30:13;;;;;;;12.57;3.67;;;10.90;99.90;;;;;;5119608;28;20483;-83
2022/09/17 05:32:41;;;;;;;10.10;3.53;;;10.90;99.90;;;;;;5120509;28;20449;-81
2022/09/17 05:35:10;;;;;;;10.90;3.70;;;10.90;99.90;;;;;;5120026;28;20429;-82
2022/09/17 05:37:40;;;;;;;12.40;3.13;;;10.90;99.90;;;;;;5113702;28;20448;-83
2022/09/17 05:40:09;;;;;;;12.93;3.87;;;10.90;99.90;;;;;;5112361;28;20487;-82
2022/09/17 05:42:37;;;;;;;18.13;3.90;;;10.90;99.90;;;;;;5113021;28;20502;-82
2022/09/17 05:45:07;;;;;;;14.43;3.57;;;10.80;99.90;;;;;;5112228;28;20459;-82
2022/09/17 05:47:35;;;;;;;12.87;3.57;;;10.80;99.90;;;;;;5111144;28;20440;-82
2022/09/17 05:50:04;;;;;;;16.23;4.20;;;10.80;99.90;;;;;;5110142;28;20468;-81
2022/09/17 05:52:32;;;;;;;10.80;3.20;;;10.80;99.90;;;;;;5110623;28;20471;-83
2022/09/17 05:55:01;;;;;;;15.13;4.20;;;10.80;99.90;;;;;;5108768;28;20476;-82
2022/09/17 05:57:30;;;;;;;12.63;3.93;;;10.80;99.90;;;;;;5109712;28;20876;-82
2022/09/17 05:59:58;;;;;;;11.83;4.37;;;10.80;99.90;;;;;;5109338;28;20440;-82
2022/09/17 06:02:26;;;;;;;12.57;3.30;;;10.80;99.90;;;;;;5109367;28;20515;-83
2022/09/17 06:04:54;;;;;;;13.63;3.50;;;10.80;99.90;;;;;;5110811;28;20440;-84
2022/09/17 06:07:23;;;;;;;11.87;3.87;;;10.70;99.90;;;;;;5111300;28;20539;-81
2022/09/17 06:09:51;;;;;;;11.30;3.13;;;10.80;99.90;;;;;;5110095;28;20561;-82
2022/09/17 06:12:20;;;;;;;12.03;3.40;;;10.80;99.90;;;;;;5108993;28;20567;-82
2022/09/17 06:14:49;;;;;;;15.30;3.60;;;10.80;99.90;;;;;;5108209;28;20509;-82
2022/09/17 06:17:17;;;;;;;6.97;2.40;;;10.90;99.90;;;;;;5109219;28;20996;-83
2022/09/17 06:19:49;;;;;;;12.00;3.13;;;11.00;99.90;;;;;;5107935;28;20455;-83
2022/09/17 06:22:19;;;;;;;12.97;3.97;;;11.10;99.90;;;;;;5109317;28;20460;-82
2022/09/17 06:24:47;;;;;;;11.83;3.23;;;11.10;99.90;;;;;;5109642;28;20998;-83
2022/09/17 06:27:15;;;;;;;20.17;4.03;;;11.20;99.90;;;;;;5107675;28;20802;-82
2022/09/17 06:29:45;;;;;;;9.50;3.00;;;11.40;99.90;;;;;;5106380;28;20476;-83
2022/09/17 06:32:15;;;;;;;12.43;3.37;;;11.30;99.90;;;;;;5109070;28;20449;-82
2022/09/17 06:34:43;;;;;;;8.90;3.40;;;11.30;99.90;;;;;;5105700;28;20470;-83
2022/09/17 06:37:12;;;;;;;9.50;3.47;;;11.30;99.90;;;;;;5104508;28;20501;-82
2022/09/17 06:39:40;;;;;;;8.10;3.10;;;11.30;99.90;;;;;;5106387;28;20452;-82
2022/09/17 06:42:08;;;;;;;11.47;3.03;;;11.20;99.90;;;;;;5104824;28;20464;-82
2022/09/17 06:44:37;;;;;;;9.17;3.00;;;11.20;99.90;;;;;;5102404;28;20555;-82
2022/09/17 06:47:06;;;;;;;9.87;3.00;;;11.20;99.90;;;;;;5094714;28;20535;-83
2022/09/17 06:49:35;;;;;;;11.73;2.70;;;11.30;99.90;;;;;;5089936;28;20463;-82
2022/09/17 06:52:04;;;;;;;12.00;4.10;;;11.30;99.90;;;;;;5082202;28;20479;-82
2022/09/17 06:54:32;;;;;;;10.57;3.43;;;11.30;99.90;;;;;;5085431;28;20445;-82
2022/09/17 06:57:00;;;;;;;9.40;3.43;;;11.30;99.90;;;;;;5085118;28;21028;-82
2022/09/17 06:59:28;;;;;;;13.23;3.53;;;11.30;99.90;;;;;;5085938;28;20855;-82
2022/09/17 07:01:56;;;;;;;9.77;2.97;;;11.30;99.90;;;;;;5084863;28;20464;-82
2022/09/17 07:04:26;;;;;;;12.53;4.00;;;11.40;99.90;;;;;;5082603;28;20456;-82
2022/09/17 07:06:54;;;;;;;12.80;2.80;;;11.40;99.90;;;;;;5081729;28;20441;-84
2022/09/17 07:09:23;;;;;;;10.37;3.40;;;11.40;99.90;;;;;;5080148;28;20464;-82
2022/09/17 07:11:51;;;;;;;13.83;3.40;;;11.50;99.90;;;;;;5078191;28;21002;-82
2022/09/17 07:14:20;;;;;;;9.93;3.40;;;11.50;99.90;;;;;;5081846;28;20513;-82
2022/09/17 07:16:48;;;;;;;19.60;3.93;;;11.50;99.90;;;;;;5086998;28;20458;-82
2022/09/17 07:19:16;;;;;;;10.37;3.63;;;11.60;99.90;;;;;;5102206;28;20454;-83
2022/09/17 07:21:48;;;;;;;12.07;3.40;;;11.60;99.90;;;;;;5102076;28;20884;-83
2022/09/17 07:24:16;;;;;;;11.60;3.07;;;11.60;99.90;;;;;;5099711;28;20437;-82
2022/09/17 07:26:44;;;;;;;8.60;3.17;;;11.70;99.90;;;;;;5099271;28;20490;-83
2022/09/17 07:29:13;;;;;;;13.90;3.60;;;11.70;99.90;;;;;;5100414;28;20456;-84
2022/09/17 07:31:41;;;;;;;10.50;2.60;;;11.80;99.90;;;;;;5098577;28;20992;-84
2022/09/17 07:34:10;;;;;;;12.47;3.30;;;11.80;99.90;;;;;;5098695;28;20444;-83
2022/09/17 07:36:38;;;;;;;8.80;3.43;;;11.90;99.90;;;;;;5096852;28;20451;-83
2022/09/17 07:39:08;;;;;;;14.40;3.93;;;11.90;99.90;;;;;;5097852;28;20797;-83
2022/09/17 07:41:36;;;;;;;11.63;3.80;;;12.00;99.90;;;;;;5099716;28;20456;-83
2022/09/17 07:44:05;;;;;;;13.67;3.90;;;12.00;99.90;;;;;;5099624;28;20445;-82
2022/09/17 07:46:33;;;;;;;13.73;3.77;;;12.10;99.90;;;;;;5100931;28;20451;-84
2022/09/17 07:49:02;;;;;;;15.33;3.40;;;12.20;99.90;;;;;;5100707;28;20448;-83
2022/09/17 07:51:30;;;;;;;11.47;3.80;;;12.30;99.90;;;;;;5100613;28;20472;-83
2022/09/17 07:54:01;;;;;;;9.90;3.03;;;12.40;99.90;;;;;;5099444;28;20451;-83
2022/09/17 07:56:30;;;;;;;12.30;3.63;;;12.60;99.90;;;;;;5105775;28;20460;-83
2022/09/17 07:58:58;;;;;;;9.60;3.47;;;12.70;99.90;;;;;;5107622;28;20504;-83
2022/09/17 08:01:27;;;;;;;9.20;2.53;;;12.90;99.90;;;;;;5105495;28;20492;-82
2022/09/17 08:03:55;;;;;;;10.67;3.27;;;13.00;99.90;;;;;;5106787;28;20781;-82
2022/09/17 08:06:26;;;;;;;13.00;3.03;;;13.10;99.90;;;;;;5107801;28;20452;-82
2022/09/17 08:08:55;;;;;;;11.33;3.20;;;13.20;99.90;;;;;;5095708;28;20540;-83
2022/09/17 08:11:25;;;;;;;9.90;2.93;;;13.40;99.90;;;;;;5093122;28;20493;-84
2022/09/17 08:14:16;;;;;;;10.70;3.13;;;13.50;99.90;;;;;;5087412;28;20437;-83
2022/09/17 08:16:46;;;;;;;9.30;3.37;;;13.60;99.90;;;;;;5086333;28;20882;-83
2022/09/17 08:19:14;;;;;;;8.20;2.80;;;13.70;99.90;;;;;;5088878;28;20548;-84
2022/09/17 08:21:42;;;;;;;13.63;3.93;;;13.80;99.90;;;;;;5088561;28;20465;-84
2022/09/17 08:24:10;;;;;;;8.57;2.90;;;14.00;99.90;;;;;;5086910;28;20431;-83
2022/09/17 08:26:39;;;;;;;9.17;2.93;;;14.10;99.90;;;;;;5086035;28;20519;-84
2022/09/17 08:29:07;;;;;;;13.33;2.77;;;14.10;99.90;;;;;;5083069;28;20544;-82
2022/09/17 08:31:37;;;;;;;8.67;3.20;;;14.00;99.90;;;;;;5081157;28;20481;-84
2022/09/17 08:34:09;;;;;;;6.93;2.37;;;13.90;99.90;;;;;;5082736;28;20452;-82
2022/09/17 08:36:38;;;;;;;8.73;2.63;;;13.90;99.90;;;;;;5083014;28;20457;-83
2022/09/17 08:39:07;;;;;;;13.60;2.80;;;13.80;99.90;;;;;;5081982;28;20520;-83
2022/09/17 08:41:45;;;;;;;10.53;3.00;;;13.70;99.90;;;;;;5082416;28;20522;-83
2022/09/17 08:44:23;;;;;;;9.90;3.07;;;13.70;99.90;;;;;;5081998;28;20444;-84
2022/09/17 08:46:57;;;;;;;10.50;2.90;;;13.70;99.90;;;;;;5082411;28;20511;-82
2022/09/17 08:49:33;;;;;;;10.60;3.00;;;13.80;99.90;;;;;;5082606;28;20498;-83
2022/09/17 08:52:41;;;;;;;8.07;2.80;;;13.80;99.90;;;;;;5082799;28;20523;-82
2022/09/17 08:55:24;;;;;;;20.03;3.93;;;13.80;99.90;;;;;;5081102;28;20468;-82
2022/09/17 08:58:02;;;;;;;11.93;3.53;;;13.80;99.90;;;;;;5079580;28;20480;-84
2022/09/17 09:00:36;;;;;;;10.37;3.07;;;13.80;99.90;;;;;;5079847;28;20436;-82
2022/09/17 09:03:21;;;;;;;7.03;2.17;;;13.80;99.90;;;;;;5080511;28;20429;-82
2022/09/17 09:05:52;;;;;;;6.90;2.73;;;13.80;99.90;;;;;;5080053;28;20452;-83
2022/09/17 09:08:26;;;;;;;6.77;2.03;;;13.80;99.90;;;;;;5079887;28;20449;-82
2022/09/17 09:11:00;;;;;;;10.47;3.57;;;13.70;99.90;;;;;;5078390;28;20971;-82
2022/09/17 09:13:35;;;;;;;10.23;3.27;;;13.70;99.90;;;;;;5078592;28;20441;-82
2022/09/17 09:16:06;;;;;;;10.73;2.93;;;13.60;99.90;;;;;;5078626;28;20448;-82
2022/09/17 09:18:40;;;;;;;7.73;3.53;;;13.60;99.90;;;;;;5077200;28;20783;-84
2022/09/17 09:21:23;;;;;;;9.57;2.93;;;13.50;99.90;;;;;;5078011;28;20499;-83
2022/09/17 09:23:57;;;;;;;9.90;3.00;;;13.40;99.90;;;;;;5080926;28;20430;-83
2022/09/17 09:26:39;;;;;;;5.83;2.10;;;13.20;99.90;;;;;;5083659;28;20815;-83
2022/09/17 09:29:19;;;;;;;6.73;2.20;;;13.00;99.90;;;;;;5085711;28;20453;-84
2022/09/17 09:32:12;;;;;;;9.03;3.17;;;12.70;99.90;;;;;;5084416;28;20867;-85
2022/09/17 09:34:48;;;;;;;8.30;2.90;;;12.60;99.90;;;;;;5083545;28;20508;-85
2022/09/17 09:37:21;;;;;;;7.80;2.47;;;12.40;99.90;;;;;;5081625;28;20437;-83
2022/09/17 09:39:54;;;;;;;10.33;3.50;;;12.30;99.90;;;;;;5082136;28;20452;-84
2022/09/17 09:42:29;;;;;;;7.23;2.50;;;12.20;99.90;;;;;;5082062;28;20985;-84
2022/09/17 09:45:00;;;;;;;7.40;2.33;;;12.20;99.90;;;;;;5079376;28;20942;-84
2022/09/17 09:47:54;;;;;;;7.00;2.47;;;12.10;99.90;;;;;;5079566;28;20791;-84
2022/09/17 09:50:43;;;;;;;7.07;3.30;;;12.10;99.90;;;;;;5080060;28;20513;-84
2022/09/17 09:53:45;;;;;;;6.80;2.70;;;12.00;99.90;;;;;;5079376;28;20787;-83
2022/09/17 09:56:37;;;;;;;7.13;2.67;;;12.00;99.90;;;;;;5080287;28;20432;-82
2022/09/17 09:59:07;;;;;;;5.70;2.13;;;12.10;99.90;;;;;;5078407;28;20432;-85
2022/09/17 10:01:41;;;;;;;6.83;2.17;;;12.00;99.90;;;;;;5080066;28;20563;-84
2022/09/17 10:04:18;;;;;;;9.93;2.50;;;12.00;99.90;;;;;;5079120;28;20512;-82
2022/09/17 10:06:49;;;;;;;7.50;1.90;;;12.00;99.90;;;;;;5079061;28;20441;-83
2022/09/17 10:09:21;;;;;;;9.10;2.30;;;12.00;99.90;;;;;;5078587;28;20449;-82
2022/09/17 10:12:16;;;;;;;7.43;2.07;;;11.90;99.90;;;;;;5079468;28;20476;-83
2022/09/17 10:14:46;;;;;;;7.83;2.43;;;11.90;99.90;;;;;;5078287;28;20456;-82
2022/09/17 10:17:21;;;;;;;5.70;2.17;;;11.90;99.90;;;;;;5079308;28;20500;-83
2022/09/17 10:20:15;;;;;;;8.23;2.13;;;11.80;99.90;;;;;;5078230;28;20868;-83
2022/09/17 10:22:51;;;;;;;8.30;2.40;;;11.80;99.90;;;;;;5077734;28;20518;-84
2022/09/17 10:25:28;;;;;;;8.53;2.20;;;11.80;99.90;;;;;;5080825;28;20477;-84
2022/09/17 10:27:58;;;;;;;5.10;2.33;;;11.80;99.90;;;;;;5079040;28;20436;-85
2022/09/17 10:30:27;;;;;;;5.97;2.10;;;11.80;99.90;;;;;;5078448;28;20467;-84
2022/09/17 10:33:21;;;;;;;6.37;2.40;;;11.80;99.90;;;;;;5078085;28;20469;-84
2022/09/17 10:36:01;;;;;;;6.53;2.13;;;11.80;99.90;;;;;;5078261;28;20425;-84
2022/09/17 10:38:33;;;;;;;6.20;1.80;;;11.80;99.90;;;;;;5076849;28;20453;-84
2022/09/17 10:41:20;;;;;;;4.70;2.20;;;11.80;99.90;;;;;;5077017;28;20472;-84
2022/09/17 10:43:49;;;;;;;4.67;2.67;;;11.80;99.90;;;;;;5077302;28;20449;-84
2022/09/17 10:46:21;;;;;;;7.80;2.40;;;11.80;99.90;;;;;;5077849;28;20456;-84
2022/09/17 10:49:08;;;;;;;5.67;1.93;;;11.80;99.90;;;;;;5078104;28;20501;-84
2022/09/17 10:51:37;;;;;;;5.40;1.80;;;11.70;99.90;;;;;;5078491;28;20493;-83
2022/09/17 10:54:41;;;;;;;5.80;1.97;;;11.70;99.90;;;;;;5076129;28;20441;-84
2022/09/17 10:57:13;;;;;;;6.10;1.80;;;11.70;99.90;;;;;;5075540;28;20441;-83
2022/09/17 11:00:03;;;;;;;4.40;1.93;;;11.60;99.90;;;;;;5079533;28;20422;-83
2022/09/17 11:03:09;;;;;;;7.20;2.57;;;11.60;99.90;;;;;;5077088;28;20552;-83
2022/09/17 11:06:03;;;;;;;5.80;1.90;;;11.60;99.90;;;;;;5080347;28;20459;-85
2022/09/17 11:08:39;;;;;;;6.77;2.13;;;11.60;99.90;;;;;;5081277;28;20441;-84
2022/09/17 11:11:11;;;;;;;6.73;2.13;;;11.60;99.90;;;;;;5080730;28;20473;-84
2022/09/17 11:13:48;;;;;;;5.80;2.07;;;11.50;99.90;;;;;;5083814;28;20813;-82
2022/09/17 11:16:30;;;;;;;5.83;1.87;;;11.50;99.90;;;;;;5080223;28;20443;-83
2022/09/17 11:19:08;;;;;;;5.40;1.70;;;11.50;99.90;;;;;;5079252;28;20437;-83
2022/09/17 11:21:44;;;;;;;7.30;2.60;;;11.40;99.90;;;;;;5078891;28;20469;-83
2022/09/17 11:24:47;;;;;;;5.60;2.17;;;11.40;99.90;;;;;;5075900;28;20452;-83
2022/09/17 11:27:31;;;;;;;9.00;2.70;;;11.40;99.90;;;;;;5065957;28;20784;-83
2022/09/17 11:30:08;;;;;;;7.57;2.30;;;11.40;99.90;;;;;;5076046;28;20460;-83
2022/09/17 11:33:02;;;;;;;5.97;2.07;;;11.40;99.90;;;;;;5076880;28;20993;-83
2022/09/17 11:35:35;;;;;;;8.23;2.20;;;11.40;99.90;;;;;;5079031;28;20476;-83
2022/09/17 11:38:06;;;;;;;6.40;1.73;;;11.40;99.90;;;;;;5080264;28;20537;-82
2022/09/17 11:40:40;;;;;;;5.03;1.80;;;11.40;99.90;;;;;;5080297;28;20441;-82
2022/09/17 11:43:20;;;;;;;5.07;1.90;;;11.40;99.90;;;;;;5080862;28;20428;-83
2022/09/17 11:46:00;;;;;;;5.77;1.70;;;11.30;99.90;;;;;;5078317;28;20795;-82
2022/09/17 11:48:35;;;;;;;5.97;2.00;;;11.30;99.90;;;;;;5076008;28;20437;-84
2022/09/17 11:51:20;;;;;;;3.90;1.40;;;11.30;99.90;;;;;;5075860;28;20502;-83
2022/09/17 11:53:53;;;;;;;6.70;2.10;;;11.40;99.90;;;;;;5077253;28;20452;-84
2022/09/17 11:56:25;;;;;;;7.27;2.00;;;11.40;99.90;;;;;;5078451;28;20931;-83
2022/09/17 11:59:00;;;;;;;8.47;2.50;;;11.40;99.90;;;;;;5079248;28;20494;-83
2022/09/17 12:01:38;;;;;;;7.83;1.97;;;11.40;99.90;;;;;;5079921;28;20465;-83
2022/09/17 12:04:27;;;;;;;7.17;1.97;;;11.50;99.90;;;;;;5076992;28;20531;-82
2022/09/17 12:07:01;;;;;;;7.07;2.33;;;11.50;99.90;;;;;;5075142;28;20500;-82
2022/09/17 12:09:34;;;;;;;7.30;2.00;;;11.50;99.90;;;;;;5074872;28;20453;-83
2022/09/17 12:12:07;;;;;;;7.33;2.00;;;11.60;99.90;;;;;;5075539;28;20492;-83
2022/09/17 12:14:46;;;;;;;9.50;2.77;;;11.60;99.90;;;;;;5075920;28;20904;-82
2022/09/17 12:17:22;;;;;;;8.40;2.70;;;11.70;99.90;;;;;;5076637;28;20414;-83
2022/09/17 12:19:54;;;;;;;9.07;2.40;;;11.70;99.90;;;;;;5076250;28;20772;-82
2022/09/17 12:22:26;;;;;;;11.20;2.37;;;11.80;99.90;;;;;;5074997;28;21078;-81
2022/09/17 12:24:54;;;;;;;6.10;2.30;;;11.80;99.90;;;;;;5077995;28;20417;-82
2022/09/17 12:27:36;;;;;;;7.10;2.50;;;11.90;99.90;;;;;;5075560;28;20449;-81
2022/09/17 12:30:10;;;;;;;10.13;2.37;;;12.00;99.90;;;;;;5077033;28;20821;-83
2022/09/17 12:33:02;;;;;;;7.87;2.47;;;12.00;99.90;;;;;;5075108;28;20469;-83
2022/09/17 12:36:00;;;;;;;8.57;2.60;;;12.10;99.90;;;;;;5076689;28;20453;-82
2022/09/17 12:39:08;;;;;;;7.97;3.13;;;12.10;99.90;;;;;;5077398;28;20421;-82
2022/09/17 12:41:46;;;;;;;7.87;2.17;;;12.10;99.90;;;;;;5075805;28;20469;-83
2022/09/17 12:44:42;;;;;;;10.60;3.30;;;12.20;99.90;;;;;;5075188;28;20472;-83
2022/09/17 12:47:33;;;;;;;10.03;3.20;;;12.20;99.90;;;;;;5071686;28;20449;-83
2022/09/17 12:50:17;;;;;;;12.13;3.50;;;12.30;99.90;;;;;;5076101;28;20959;-84
2022/09/17 12:52:57;;;;;;;8.50;2.90;;;12.30;99.90;;;;;;5078602;28;20495;-83
2022/09/17 12:55:46;;;;;;;10.50;3.60;;;12.40;99.90;;;;;;5079514;28;20476;-82
2022/09/17 12:58:27;;;;;;;7.77;2.80;;;12.40;99.90;;;;;;5078054;28;20452;-82
2022/09/17 13:01:03;;;;;;;11.87;3.00;;;12.40;99.90;;;;;;5077661;28;20448;-82
2022/09/17 13:03:37;;;;;;;10.70;3.97;;;12.50;99.90;;;;;;5077736;28;20524;-81
2022/09/17 13:06:36;;;;;;;12.20;3.57;;;12.50;99.90;;;;;;5079273;28;20523;-84
2022/09/17 13:09:40;;;;;;;11.80;3.43;;;12.60;99.90;;;;;;5077680;28;20448;-81
2022/09/17 13:12:21;;;;;;;8.03;2.40;;;12.70;99.90;;;;;;5084016;28;20480;-82
2022/09/17 13:15:06;;;;;;;18.93;4.10;;;12.80;99.90;;;;;;5080444;28;20552;-82
2022/09/17 13:17:42;;;;;;;14.00;4.27;;;12.90;99.90;;;;;;5080024;28;20551;-82